Harmans, Maryland
Current Conditions -  °F | °C
As of 6:54 AM on Friday 21 Nov 2014 (Local Time) from KBWI Reporting Station
Few Clouds Few Clouds  
Wind Chill: 18°   Ceiling: Unl
Heat Index: 26°   Visibility: 10mi
Dew Point: 10°   Wind: 7mph
Humidity: 51%   Direction: 270°W
Pressure: 30.32"   Gusts: NA
Location:  39.16°N, 76.7°W
Report Text: KBWI 211154Z 27006KT 10SM FEW060 M03/M12 A3032 RMK AO2 SLP269 T10331122 10000 21039 53034
Loading
Personal Weather Stations






























Interactive Weather Map New forecast layout! Learn more

10-Day Weather Forecast

Advertisements
Track Severe Weather on mobile